地図

経路データ

SID SEASON NUMBER BASIN SUBBASIN NAME ISO_TIME NATURE LAT LON WMO_WIND WMO_PRES WMO_AGENCY TRACK_TYPE DIST2LAND LANDFALL IFLAG USA_AGENCY USA_ATCF_ID USA_LAT USA_LON USA_RECORD USA_STATUS USA_WIND USA_PRES USA_SSHS USA_R34_NE USA_R34_SE USA_R34_SW USA_R34_NW USA_R50_NE USA_R50_SE USA_R50_SW USA_R50_NW USA_R64_NE USA_R64_SE USA_R64_SW USA_R64_NW USA_POCI USA_ROCI USA_RMW USA_EYE TOKYO_LAT TOKYO_LON TOKYO_GRADE TOKYO_WIND TOKYO_PRES TOKYO_R50_DIR TOKYO_R50_LONG TOKYO_R50_SHORT TOKYO_R30_DIR TOKYO_R30_LONG TOKYO_R30_SHORT TOKYO_LAND CMA_LAT CMA_LON CMA_CAT CMA_WIND CMA_PRES HKO_LAT HKO_LON HKO_CAT HKO_WIND HKO_PRES NEWDELHI_LAT NEWDELHI_LON NEWDELHI_GRADE NEWDELHI_WIND NEWDELHI_PRES NEWDELHI_CI NEWDELHI_DP NEWDELHI_POCI REUNION_LAT REUNION_LON REUNION_TYPE REUNION_WIND REUNION_PRES REUNION_TNUM REUNION_CI REUNION_RMW REUNION_R34_NE REUNION_R34_SE REUNION_R34_SW REUNION_R34_NW REUNION_R50_NE REUNION_R50_SE REUNION_R50_SW REUNION_R50_NW REUNION_R64_NE REUNION_R64_SE REUNION_R64_SW REUNION_R64_NW BOM_LAT BOM_LON BOM_TYPE BOM_WIND BOM_PRES BOM_TNUM BOM_CI BOM_RMW BOM_R34_NE BOM_R34_SE BOM_R34_SW BOM_R34_NW BOM_R50_NE BOM_R50_SE BOM_R50_SW BOM_R50_NW BOM_R64_NE BOM_R64_SE BOM_R64_SW BOM_R64_NW BOM_ROCI BOM_POCI BOM_EYE BOM_POS_METHOD BOM_PRES_METHOD NADI_LAT NADI_LON NADI_CAT NADI_WIND NADI_PRES WELLINGTON_LAT WELLINGTON_LON WELLINGTON_WIND WELLINGTON_PRES DS824_LAT DS824_LON DS824_STAGE DS824_WIND DS824_PRES TD9636_LAT TD9636_LON TD9636_STAGE TD9636_WIND TD9636_PRES TD9635_LAT TD9635_LON TD9635_WIND TD9635_PRES TD9635_ROCI NEUMANN_LAT NEUMANN_LON NEUMANN_CLASS NEUMANN_WIND NEUMANN_PRES MLC_LAT MLC_LON MLC_CLASS MLC_WIND MLC_PRES USA_GUST BOM_GUST BOM_GUST_PER REUNION_GUST REUNION_GUST_PER USA_SEAHGT USA_SEARAD_NE USA_SEARAD_SE USA_SEARAD_SW USA_SEARAD_NW STORM_SPEED STORM_DIR
2020241N17131 2020 27 WP MM MAYSAK 2020-08-28 00:00:00 NR 16.8000 130.600 PROVISIONAL 739 696 O_____________ tcvitals WP102020 16.8000 130.600 25 1001 -1 1005 230 50 9 251
2020241N17131 2020 27 WP MM MAYSAK 2020-08-28 03:00:00 NR 16.6553 130.155 PROVISIONAL 696 648 P_____________ WP102020 16.6553 130.155 27 1000 -1 1004 245 69 8 249
2020241N17131 2020 27 WP MM MAYSAK 2020-08-28 06:00:00 NR 16.5000 129.800 PROVISIONAL 648 624 O_____________ tcvitals WP102020 16.5000 129.800 29 999 -1 1003 260 89 6 240
2020241N17131 2020 27 WP MM MAYSAK 2020-08-28 09:00:00 NR 16.3474 129.598 PROVISIONAL 619 610 P_____________ WP102020 16.3474 129.598 32 999 -1 1004 267 59 4 235
2020241N17131 2020 27 WP MM MAYSAK 2020-08-28 12:00:00 NR 16.3000 129.500 PROVISIONAL 610 605 O_____________ tcvitals WP102020 16.3000 129.500 35 1000 0 90 30 120 40 1005 275 30 2 316
2020241N17131 2020 27 WP MM MAYSAK 2020-08-28 15:00:00 NR 16.5075 129.435 PROVISIONAL 610 610 P_____________ WP102020 16.5075 129.435 40 995 0 92 125 1003 275 30 4 347
2020241N17131 2020 27 WP MM MAYSAK 2020-08-28 18:00:00 NR 16.7000 129.400 PROVISIONAL 621 615 O_____________ tcvitals WP102020 16.7000 129.400 45 990 0 95 130 1002 275 30 1 299
2020241N17131 2020 27 WP MM MAYSAK 2020-08-28 21:00:00 NR 16.5500 129.350 PROVISIONAL 606 595 P_____________ WP102020 16.5500 129.350 49 988 0 62 160 1002 262 47 3 197
2020241N17131 2020 27 WP MM MAYSAK 2020-08-29 00:00:00 NR 16.4000 129.300 PROVISIONAL 595 595 O_____________ tcvitals WP102020 16.4000 129.300 54 986 0 30 105 190 110 1003 250 65 1 279
2020241N17131 2020 27 WP MM MAYSAK 2020-08-29 03:00:00 NR 16.5625 129.265 PROVISIONAL 606 597 P_____________ WP102020 16.5625 129.265 54 985 0 52 122 180 92 1002 250 60 4 347
2020241N17131 2020 27 WP MM MAYSAK 2020-08-29 06:00:00 NR 16.8000 129.200 PROVISIONAL 608 605 O_____________ tcvitals WP102020 16.8000 129.200 54 984 0 75 140 170 75 1002 250 55 4 333
2020241N17131 2020 27 WP MM MAYSAK 2020-08-29 09:00:00 NR 16.9450 129.058 PROVISIONAL 605 594 P_____________ WP102020 16.9450 129.058 54 985 0 92 142 172 75 1003 250 47 4 305
2020241N17131 2020 27 WP MM MAYSAK 2020-08-29 12:00:00 NR 17.0000 128.900 PROVISIONAL 594 579 O_____________ tcvitals WP102020 17.0000 128.900 54 986 0 110 145 175 75 1004 250 40 3 259
2020241N17131 2020 27 WP MM MAYSAK 2020-08-29 15:00:00 NR 16.8925 128.785 PROVISIONAL 579 563 P_____________ WP102020 16.8925 128.785 59 982 0 112 132 167 107 1003 250 27 3 224
2020241N17131 2020 27 WP MM MAYSAK 2020-08-29 18:00:00 NR 16.8000 128.700 PROVISIONAL 563 555 O_____________ tcvitals WP102020 16.8000 128.700 64 978 1 115 120 160 140 1002 250 14 2 253
2020241N17131 2020 27 WP MM MAYSAK 2020-08-29 21:00:00 NR 16.8375 128.598 PROVISIONAL 555 555 P_____________ WP102020 16.8375 128.598 67 976 1 117 140 152 130 1002 250 14 3 343
2020241N17131 2020 27 WP MM MAYSAK 2020-08-30 00:00:00 NR 17.1000 128.600 PROVISIONAL 575 575 O_____________ tcvitals WP102020 17.1000 128.600 70 974 1 120 160 145 120 1002 250 14 9 16
2020241N17131 2020 27 WP MM MAYSAK 2020-08-30 03:00:00 NR 17.6902 128.857 PROVISIONAL 642 642 P_____________ WP102020 17.6902 128.857 72 972 1 120 177 147 115 1001 245 14 14 20
2020241N17131 2020 27 WP MM MAYSAK 2020-08-30 06:00:00 NR 18.4000 129.100 PROVISIONAL 710 710 O_____________ tcvitals WP102020 18.4000 129.100 74 971 1 120 195 150 110 1001 240 14 13 9
2020241N17131 2020 27 WP MM MAYSAK 2020-08-30 09:00:00 NR 18.9499 129.068 PROVISIONAL 718 703 P_____________ WP102020 18.9499 129.068 79 967 1 142 200 138 125 1001 235 14 11 350
2020241N17131 2020 27 WP MM MAYSAK 2020-08-30 12:00:00 NR 19.5000 128.900 PROVISIONAL 704 695 O_____________ tcvitals WP102020 19.5000 128.900 84 964 2 165 205 126 140 1002 230 14 12 343
2020241N17131 2020 27 WP MM MAYSAK 2020-08-30 15:00:00 NR 20.1051 128.693 PROVISIONAL 698 691 P_____________ WP102020 20.1051 128.693 86 961 2 185 205 130 142 1001 230 14 14 344
2020241N17131 2020 27 WP MM MAYSAK 2020-08-30 18:00:00 NR 20.8000 128.500 PROVISIONAL 702 702 O_____________ tcvitals WP102020 20.8000 128.500 89 958 2 205 205 135 145 1001 230 14 15 352
2020241N17131 2020 27 WP MM MAYSAK 2020-08-30 21:00:00 NR 21.6273 128.479 PROVISIONAL 739 699 P_____________ WP102020 21.6273 128.479 91 955 2 205 202 137 145 1001 230 13 17 357
2020241N17131 2020 27 WP MM MAYSAK 2020-08-31 00:00:00 NR 22.5000 128.400 PROVISIONAL 699 634 O_____________ tcvitals WP102020 22.5000 128.400 93 953 2 205 200 140 145 1001 230 12 18 346
2020241N17131 2020 27 WP MM MAYSAK 2020-08-31 03:00:00 NR 23.3603 128.024 PROVISIONAL 631 574 P_____________ WP102020 23.3603 128.024 96 950 3 202 200 140 145 1001 225 12 18 335
2020241N17131 2020 27 WP MM MAYSAK 2020-08-31 06:00:00 NR 24.1000 127.600 PROVISIONAL 574 546 O_____________ tcvitals WP102020 24.1000 127.600 99 948 3 200 200 140 145 1001 220 12 14 335
2020241N17131 2020 27 WP MM MAYSAK 2020-08-31 09:00:00 NR 24.5872 127.384 PROVISIONAL 546 523 P_____________ WP102020 24.5872 127.384 102 946 3 195 187 140 157 1001 217 16 10 338
2020241N17131 2020 27 WP MM MAYSAK 2020-08-31 12:00:00 NR 25.0000 127.200 PROVISIONAL 523 495 O_____________ tcvitals WP102020 25.0000 127.200 105 944 3 190 175 140 170 1002 215 20 11 335
2020241N17131 2020 27 WP MM MAYSAK 2020-08-31 15:00:00 NR 25.5426 126.900 PROVISIONAL 495 474 P_____________ WP102020 25.5426 126.900 110 938 3 200 182 142 170 1002 212 12 12 334
2020241N17131 2020 27 WP MM MAYSAK 2020-08-31 18:00:00 NR 26.1000 126.600 PROVISIONAL 477 467 O_____________ tcvitals WP102020 26.1000 126.600 115 933 4 210 190 145 170 1002 210 5 12 336
2020241N17131 2020 27 WP MM MAYSAK 2020-08-31 21:00:00 NR 26.6450 126.362 PROVISIONAL 475 469 P_____________ WP102020 26.6450 126.362 115 934 4 202 192 147 167 1003 225 5 11 340
2020241N17131 2020 27 WP MM MAYSAK 2020-09-01 00:00:00 NR 27.1000 126.200 PROVISIONAL 471 448 O_____________ tcvitals WP102020 27.1000 126.200 115 935 4 195 195 150 165 1004 240 5 8 342
2020241N17131 2020 27 WP MM MAYSAK 2020-09-01 03:00:00 NR 27.3649 126.105 PROVISIONAL 448 438 P_____________ WP102020 27.3649 126.105 119 928 4 197 192 155 172 1002 235 5 5 350
2020241N17131 2020 27 WP MM MAYSAK 2020-09-01 06:00:00 NR 27.6000 126.100 PROVISIONAL 438 425 O_____________ tcvitals WP102020 27.6000 126.100 124 921 4 200 190 160 180 1001 230 5 6 5
2020241N17131 2020 27 WP MM MAYSAK 2020-09-01 09:00:00 NR 27.9625 126.163 PROVISIONAL 430 424 P_____________ WP102020 27.9625 126.163 121 923 4 200 195 165 170 1001 220 5 8 13
2020241N17131 2020 27 WP MM MAYSAK 2020-09-01 12:00:00 NR 28.4000 126.300 PROVISIONAL 427 425 O_____________ tcvitals WP102020 28.4000 126.300 119 926 4 200 200 170 160 1002 210 5 10 18
2020241N17131 2020 27 WP MM MAYSAK 2020-09-01 15:00:00 NR 28.8851 126.492 PROVISIONAL 438 391 P_____________ WP102020 28.8851 126.492 117 928 4 200 195 190 155 1002 220 15 11 19
2020241N17131 2020 27 WP MM MAYSAK 2020-09-01 18:00:00 NR 29.4000 126.700 PROVISIONAL 391 347 O_____________ tcvitals WP102020 29.4000 126.700 115 930 4 200 190 210 150 1002 230 25 11 18
2020241N17131 2020 27 WP MM MAYSAK 2020-09-01 21:00:00 NR 29.8925 126.865 PROVISIONAL 347 314 P_____________ WP102020 29.8925 126.865 110 935 3 202 202 215 147 1002 235 19 10 15
2020241N17131 2020 27 WP MM MAYSAK 2020-09-02 00:00:00 NR 30.4000 127.000 PROVISIONAL 314 260 O_____________ tcvitals WP102020 30.4000 127.000 105 940 3 205 215 220 145 1003 240 14 10 10
2020241N17131 2020 27 WP MM MAYSAK 2020-09-02 03:00:00 NR 30.9048 127.071 PROVISIONAL 260 197 P_____________ WP102020 30.9048 127.071 102 942 3 190 180 185 157 1002 235 18 11 9
2020241N17131 2020 27 WP MM MAYSAK 2020-09-02 06:00:00 NR 31.5000 127.200 PROVISIONAL 197 138 O_____________ tcvitals WP102020 31.5000 127.200 99 944 3 175 145 150 170 1001 230 22 13 15
2020241N17131 2020 27 WP MM MAYSAK 2020-09-02 09:00:00 NR 32.2024 127.484 PROVISIONAL 138 98 P_____________ WP102020 32.2024 127.484 94 948 2 175 147 142 150 1001 232 22 17 20
2020241N17131 2020 27 WP MM MAYSAK 2020-09-02 12:00:00 NR 33.1000 127.900 PROVISIONAL 102 78 O_____________ tcvitals WP102020 33.1000 127.900 89 952 2 175 150 135 130 1001 235 22 22 23
2020241N17131 2020 27 WP MM MAYSAK 2020-09-02 15:00:00 NR 34.1810 128.492 PROVISIONAL 67 0 P_____________ WP102020 34.1810 128.492 81 957 1 175 150 135 130 1001 235 22 26 21
2020241N17131 2020 27 WP MM MAYSAK 2020-09-02 18:00:00 NR 35.5000 129.000 PROVISIONAL 0 0 O_____________ tcvitals WP102020 35.5000 129.000 74 963 1 175 150 135 130 1001 235 22 29 10
2020241N17131 2020 27 WP MM MAYSAK 2020-09-02 21:00:00 NR 37.0471 129.094 PROVISIONAL 0 0 P_____________ WP102020 37.0471 129.094 72 964 1 185 177 147 155 1001 235 23 32 1
2020241N17131 2020 27 WP MM MAYSAK 2020-09-03 00:00:00 NR 38.7000 129.100 PROVISIONAL 60 37 O_____________ tcvitals WP102020 38.7000 129.100 70 965 1 195 205 160 180 1001 235 25 32 3
2020241N17131 2020 27 WP MM MAYSAK 2020-09-03 03:00:00 NR 40.2803 129.318 PROVISIONAL 27 0 P_____________ WP102020 40.2803 129.318 65 965 1 212 222 165 157 999 242 42 31 8
2020241N17131 2020 27 WP MM MAYSAK 2020-09-03 06:00:00 NR 41.8000 129.700 PROVISIONAL 0 O_____________ tcvitals WP102020 41.8000 129.700 60 966 0 230 240 170 135 997 250 60 31 11

デジタル台風データ・検索

IBTrACS Databaseについて

本データベースは、米国NOAAが公開する1842年以降の世界の熱帯低気圧のベストトラックデータアーカイブInternational Best Track Archive for Climate Stewardship (IBTrACS)を、ウェブで閲覧しやすい形式に変換したものです。

最終更新日:2021-12-03